logo
Rechercher aéroport 
image banner adimage banner adimage banner ad
image banner ad

FACONT - Contermanskloof

Situé à , South Africa

ICAO - , IATA -

Données fournies par Airmate  

Information générale

Coordonnées: S33°48'4" E18°34'59"
Élévation : 393 feet MSL.
 
Évalué:
Voir évaluations:
[VIEW]
Voir autres Aéroports à Western Cape

Données opérationnelles

Special qualification required
Heure actuelle UTC:
Heure actuelle locale:
Météo à : - ( 0 km )
METAR: USPP 191503Z 33003MPS 9999 VCTS SCT035CB 23/16 Q1001 R03/090060 TEMPO VRB22MPS 1100 TSRAGR SQ BKN011CB RMK QFE740
Voir NOTAMs / SUP AIP / TFR affectant cet aéroport [VIEW]
Fréquences de communication: [VIEW]

Pistes:

Identifiant RWYQFULongueur (ft)Largeur (ft)SurfaceLDA (ft)
17150°98433SAND
35330°98433SAND

Coordonnées de l'aéroport

Adresse: South Africa

Vue satellite de FACONT